Time;durP1;ratioP1;P1;durP2;ratioP2;P2;SDS_P1;SDS_P2;PMS_P1;PMS_P2;Temp;Humidity;BMP_temperature;BMP_pressure;BME280_temperature;BME280_humidity;BME280_pressure;Samples;Min_cycle;Max_cycle;Signal;HPM_P1;HPM_P2
2023/12/15 00:01:36;;;;;;;;;;;;;;;4.47;96.37;101858.09;4881429;29;20383;-74
2023/12/15 00:04:39;;;;;;;;;;;;;;;4.45;96.40;101859.81;4881543;29;19922;-74
2023/12/15 00:07:42;;;;;;;;;;;;;;;4.46;96.25;101868.44;4881146;29;19922;-74
2023/12/15 00:10:45;;;;;;;;;;;;;;;4.38;96.87;101869.34;4881131;29;20329;-74
2023/12/15 00:13:48;;;;;;;;;;;;;;;4.43;96.91;101872.81;4880962;29;19926;-74
2023/12/15 00:16:51;;;;;;;;;;;;;;;4.48;96.56;101879.66;4881012;29;19923;-74
2023/12/15 00:19:53;;;;;;;;;;;;;;;4.48;96.37;101884.84;4881031;29;19973;-74
2023/12/15 00:22:56;;;;;;;;;;;;;;;4.47;96.45;101890.88;4880880;29;19988;-74
2023/12/15 00:26:00;;;;;;;;;;;;;;;4.53;96.60;101885.66;4881169;29;19963;-74
2023/12/15 00:29:03;;;;;;;;;;;;;;;4.62;95.75;101898.56;4881059;29;19921;-74
2023/12/15 00:32:06;;;;;;;;;;;;;;;4.64;95.43;101896.84;4880998;29;20391;-74
2023/12/15 00:35:10;;;;;;;;;;;;;;;4.61;95.87;101897.72;4880726;29;19926;-74
2023/12/15 00:38:13;;;;;;;;;;;;;;;4.63;96.31;101896.00;4880457;29;19938;-74
2023/12/15 00:41:15;;;;;;;;;;;;;;;4.63;96.69;101892.53;4880379;29;19975;-74
2023/12/15 00:44:18;;;;;;;;;;;;;;;4.57;97.27;101898.63;4880475;29;20007;-74
2023/12/15 00:47:21;;;;;;;;;;;;;;;4.60;97.17;101897.75;4880897;29;19922;-74
2023/12/15 00:50:27;;;;;;;;;;;;;;;4.56;97.41;101908.97;4880372;29;19967;-74
2023/12/15 00:53:32;;;;;;;;;;;;;;;4.61;97.24;101908.09;4880188;29;20070;-74
2023/12/15 00:56:35;;;;;;;;;;;;;;;4.62;97.49;101911.53;4880316;29;19987;-74
2023/12/15 00:59:38;;;;;;;;;;;;;;;4.63;96.91;101908.09;4880282;29;20009;-74
2023/12/15 01:02:41;;;;;;;;;;;;;;;4.61;96.97;101917.59;4880212;29;19926;-73
2023/12/15 01:05:44;;;;;;;;;;;;;;;4.60;97.13;101915.88;4880193;29;19971;-73
2023/12/15 01:08:47;;;;;;;;;;;;;;;4.62;97.03;101917.56;4879996;29;19923;-74
2023/12/15 01:11:53;;;;;;;;;;;;;;;4.61;97.52;101922.78;4880119;29;20006;-74
2023/12/15 01:14:59;;;;;;;;;;;;;;;4.53;97.95;101932.28;4878820;29;19926;-75
2023/12/15 01:18:03;;;;;;;;;;;;;;;4.56;98.36;101946.13;4879953;29;20403;-77
2023/12/15 01:21:09;;;;;;;;;;;;;;;4.58;97.94;101938.31;4879902;29;20010;-74
2023/12/15 01:24:14;;;;;;;;;;;;;;;4.58;98.24;101940.91;4879806;29;19922;-75
2023/12/15 01:27:20;;;;;;;;;;;;;;;4.55;98.33;101940.94;4879885;29;19971;-74
2023/12/15 01:30:26;;;;;;;;;;;;;;;4.56;98.53;101940.06;4880186;29;19977;-74
2023/12/15 01:33:30;;;;;;;;;;;;;;;4.63;98.14;101949.53;4880005;29;19927;-74
2023/12/15 01:36:34;;;;;;;;;;;;;;;4.65;98.02;101952.97;4879771;29;20316;-74
2023/12/15 01:39:37;;;;;;;;;;;;;;;4.70;98.09;101953.81;4879356;29;20051;-75
2023/12/15 01:42:41;;;;;;;;;;;;;;;4.69;97.54;101965.06;4877063;29;19922;-74
2023/12/15 01:45:44;;;;;;;;;;;;;;;4.37;98.56;101970.34;4879632;29;19922;-76
2023/12/15 01:48:50;;;;;;;;;;;;;;;4.41;99.31;101972.94;4877270;29;19971;-74
2023/12/15 01:51:53;;;;;;;;;;;;;;;4.43;98.98;101976.41;4879590;29;19926;-74
2023/12/15 01:54:56;;;;;;;;;;;;;;;4.42;99.00;101982.41;4879429;29;19927;-74
2023/12/15 01:57:58;;;;;;;;;;;;;;;4.12;100.00;101982.53;4879483;29;19931;-74
2023/12/15 02:01:01;;;;;;;;;;;;;;;4.15;100.00;101987.69;4879524;29;20338;-74
2023/12/15 02:04:05;;;;;;;;;;;;;;;3.98;100.00;101987.72;4883332;29;20375;-77
2023/12/15 02:07:08;;;;;;;;;;;;;;;3.95;100.00;101998.06;4883347;29;20404;-74
2023/12/15 02:10:11;;;;;;;;;;;;;;;3.95;100.00;101996.34;4883317;29;19963;-74
2023/12/15 02:13:14;;;;;;;;;;;;;;;3.87;99.77;101997.22;4883133;29;19930;-74
2023/12/15 02:16:17;;;;;;;;;;;;;;;3.86;99.06;102003.25;4883192;29;19926;-75
2023/12/15 02:19:20;;;;;;;;;;;;;;;3.77;99.29;102006.72;4883112;29;19922;-74
2023/12/15 02:22:25;;;;;;;;;;;;;;;3.73;98.51;102010.16;4883070;29;19923;-74
2023/12/15 02:25:32;;;;;;;;;;;;;;;3.77;98.44;102013.63;4883021;29;19964;-76
2023/12/15 02:28:35;;;;;;;;;;;;;;;3.75;97.94;102007.56;4882944;29;19971;-75
2023/12/15 02:31:38;;;;;;;;;;;;;;;3.71;98.37;102006.72;4882948;29;20472;-75
2023/12/15 02:34:41;;;;;;;;;;;;;;;3.67;97.93;102010.16;4882724;29;20445;-74
2023/12/15 02:37:44;;;;;;;;;;;;;;;3.72;97.29;102003.25;4882597;29;19943;-74
2023/12/15 02:40:46;;;;;;;;;;;;;;;3.75;96.80;102010.16;4882583;29;19927;-74
2023/12/15 02:43:50;;;;;;;;;;;;;;;3.81;97.11;102007.56;4882644;29;19922;-74
2023/12/15 02:46:53;;;;;;;;;;;;;;;3.70;97.29;102005.88;4882927;29;19922;-74
2023/12/15 02:49:56;;;;;;;;;;;;;;;3.69;97.97;102005.84;4882567;29;19950;-74
2023/12/15 02:52:59;;;;;;;;;;;;;;;3.80;98.16;102011.91;4882358;29;19927;-75
2023/12/15 02:56:02;;;;;;;;;;;;;;;3.89;98.00;102017.06;4882494;29;19923;-75
2023/12/15 02:59:05;;;;;;;;;;;;;;;3.92;97.40;102018.75;4882407;29;19922;-75
2023/12/15 03:02:09;;;;;;;;;;;;;;;3.97;97.29;102014.47;4882681;29;19971;-75
2023/12/15 03:05:12;;;;;;;;;;;;;;;3.97;97.54;102030.84;4882299;29;19923;-75
2023/12/15 03:08:15;;;;;;;;;;;;;;;4.02;97.99;102037.75;4882229;29;20386;-74
2023/12/15 03:11:19;;;;;;;;;;;;;;;4.08;97.53;102032.56;4882274;29;20304;-74
2023/12/15 03:14:22;;;;;;;;;;;;;;;4.11;97.60;102029.97;4880771;29;19926;-74
2023/12/15 03:17:25;;;;;;;;;;;;;;;4.03;98.69;102045.53;4882080;29;20019;-74
2023/12/15 03:20:28;;;;;;;;;;;;;;;3.86;99.82;102045.53;4882083;29;19923;-74
2023/12/15 03:23:31;;;;;;;;;;;;;;;3.71;100.00;102042.94;4882050;29;20026;-74
2023/12/15 03:26:34;;;;;;;;;;;;;;;3.67;100.00;102046.38;4881980;29;19971;-74
2023/12/15 03:29:37;;;;;;;;;;;;;;;3.79;100.00;102053.28;4881837;29;19963;-74
2023/12/15 03:32:40;;;;;;;;;;;;;;;3.84;100.00;102055.00;4881789;29;20345;-74
2023/12/15 03:35:43;;;;;;;;;;;;;;;3.97;100.00;102061.06;4881776;29;20011;-74
2023/12/15 03:38:46;;;;;;;;;;;;;;;4.04;99.69;102064.50;4881585;29;20060;-74
2023/12/15 03:41:50;;;;;;;;;;;;;;;4.07;99.21;102067.94;4881513;29;19926;-74
2023/12/15 03:44:53;;;;;;;;;;;;;;;4.09;99.14;102073.13;4881606;29;19922;-74
2023/12/15 03:47:56;;;;;;;;;;;;;;;4.12;98.55;102079.16;4881551;29;19962;-74
2023/12/15 03:50:59;;;;;;;;;;;;;;;4.17;98.20;102081.72;4881522;29;20336;-74
2023/12/15 03:54:02;;;;;;;;;;;;;;;4.14;98.52;102080.00;4881327;29;20014;-74
2023/12/15 03:57:05;;;;;;;;;;;;;;;4.14;99.28;102079.16;4881461;29;19922;-74
2023/12/15 04:00:08;;;;;;;;;;;;;;;4.15;99.63;102078.31;4881589;29;19922;-74
2023/12/15 04:03:12;;;;;;;;;;;;;;;4.16;99.62;102080.88;4881331;29;19939;-74
2023/12/15 04:06:14;;;;;;;;;;;;;;;4.21;99.61;102086.03;4881260;29;19968;-74
2023/12/15 04:09:18;;;;;;;;;;;;;;;4.14;99.34;102084.31;4881088;29;19971;-74
2023/12/15 04:12:20;;;;;;;;;;;;;;;4.13;99.14;102087.78;4881401;29;19938;-74
2023/12/15 04:15:23;;;;;;;;;;;;;;;4.18;99.03;102081.75;4881060;29;20429;-74
2023/12/15 04:18:26;;;;;;;;;;;;;;;4.14;99.31;102087.78;4880976;29;20002;-74
2023/12/15 04:21:29;;;;;;;;;;;;;;;4.17;99.50;102089.50;4880951;29;20394;-74
2023/12/15 04:24:32;;;;;;;;;;;;;;;4.09;99.66;102086.94;4876241;29;19963;-75
2023/12/15 04:27:35;;;;;;;;;;;;;;;4.09;99.98;102093.84;4880848;29;19922;-74
2023/12/15 04:30:38;;;;;;;;;;;;;;;4.16;99.38;102101.59;4880724;29;20269;-74
2023/12/15 04:33:41;;;;;;;;;;;;;;;4.18;98.84;102106.78;4880665;29;20308;-74
2023/12/15 04:36:44;;;;;;;;;;;;;;;4.20;99.31;102111.06;4877644;29;19971;-74
2023/12/15 04:39:47;;;;;;;;;;;;;;;4.19;99.15;102103.31;4880390;29;19931;-74
2023/12/15 04:42:50;;;;;;;;;;;;;;;4.27;98.81;102116.25;4880601;29;20063;-74
2023/12/15 04:45:54;;;;;;;;;;;;;;;4.18;99.28;102112.81;4880851;29;19938;-74
2023/12/15 04:48:59;;;;;;;;;;;;;;;4.20;99.15;102111.06;4880484;29;19943;-74
2023/12/15 04:52:02;;;;;;;;;;;;;;;4.18;99.09;102123.19;4880477;29;19923;-74
2023/12/15 04:55:05;;;;;;;;;;;;;;;4.18;99.49;102143.03;4872138;29;19967;-75
2023/12/15 04:58:09;;;;;;;;;;;;;;;4.16;99.13;102135.25;4880387;29;19963;-75
2023/12/15 05:01:13;;;;;;;;;;;;;;;4.01;100.00;102142.13;4880321;29;19971;-79
2023/12/15 05:04:16;;;;;;;;;;;;;;;4.08;99.92;102136.09;4880223;29;20014;-76
2023/12/15 05:07:19;;;;;;;;;;;;;;;4.16;99.63;102142.16;4880127;29;19923;-76
2023/12/15 05:10:23;;;;;;;;;;;;;;;4.17;99.39;102143.88;4880362;29;19923;-79
2023/12/15 05:13:26;;;;;;;;;;;;;;;4.26;99.59;102146.47;4879993;29;19926;-81
2023/12/15 05:16:29;;;;;;;;;;;;;;;4.27;98.89;102143.00;4880174;29;20428;-78
2023/12/15 05:19:32;;;;;;;;;;;;;;;4.31;99.17;102155.09;4879970;29;19922;-78
2023/12/15 05:22:36;;;;;;;;;;;;;;;4.29;99.17;102154.22;4879969;29;19964;-76
2023/12/15 05:25:39;;;;;;;;;;;;;;;4.35;98.94;102159.41;4879982;29;19990;-76
2023/12/15 05:28:44;;;;;;;;;;;;;;;4.33;99.05;102155.94;4879874;29;19922;-78
2023/12/15 05:31:47;;;;;;;;;;;;;;;4.26;99.70;102169.75;4879818;29;20336;-78
2023/12/15 05:34:50;;;;;;;;;;;;;;;4.26;99.93;102174.09;4879694;29;19926;-76
2023/12/15 05:37:53;;;;;;;;;;;;;;;4.31;99.34;102178.41;4878941;29;20386;-73
2023/12/15 05:40:57;;;;;;;;;;;;;;;4.33;99.50;102179.25;4879527;29;19991;-73
2023/12/15 05:43:59;;;;;;;;;;;;;;;4.33;99.01;102168.91;4883802;29;19971;-76
2023/12/15 05:47:03;;;;;;;;;;;;;;;4.22;100.00;102165.47;4889989;29;19948;-76
2023/12/15 05:50:07;;;;;;;;;;;;;;;4.25;100.00;102174.97;4882118;29;19922;-76
2023/12/15 05:53:10;;;;;;;;;;;;;;;4.32;99.79;102172.34;4879117;29;20452;-77
2023/12/15 05:56:14;;;;;;;;;;;;;;;4.28;99.91;102175.81;4879793;29;19930;-74
2023/12/15 05:59:18;;;;;;;;;;;;;;;4.29;99.76;102177.53;4887458;29;19980;-77
2023/12/15 06:02:25;;;;;;;;;;;;;;;4.18;99.97;102187.91;4879494;29;20006;-77
2023/12/15 06:05:33;;;;;;;;;;;;;;;4.08;100.00;102191.31;4895270;29;19947;-76
2023/12/15 06:08:37;;;;;;;;;;;;;;;4.11;100.00;102186.16;4898050;29;19969;-76
2023/12/15 06:11:41;;;;;;;;;;;;;;;4.19;100.00;102197.38;4891493;29;20448;-76
2023/12/15 06:14:44;;;;;;;;;;;;;;;4.18;100.00;102197.41;4897980;29;19930;-77
2023/12/15 06:17:47;;;;;;;;;;;;;;;4.21;100.00;102197.38;4898090;29;19948;-77
2023/12/15 06:20:51;;;;;;;;;;;;;;;4.26;99.85;102195.66;4898056;29;20014;-77
2023/12/15 06:23:54;;;;;;;;;;;;;;;4.29;99.85;102193.06;4898179;29;19926;-77
2023/12/15 06:26:57;;;;;;;;;;;;;;;4.23;99.93;102192.22;4897981;29;19927;-77
2023/12/15 06:30:00;;;;;;;;;;;;;;;4.16;99.79;102193.94;4897982;29;20424;-77
2023/12/15 06:36:59;;;;;;;;;;;;;;;3.96;100.00;102205.13;4896585;29;19922;-77
2023/12/15 06:40:03;;;;;;;;;;;;;;;3.99;100.00;102226.69;4896177;29;20336;-77
2023/12/15 06:43:06;;;;;;;;;;;;;;;4.10;100.00;102225.84;4897086;29;20006;-77
2023/12/15 06:46:44;;;;;;;;;;;;;;;4.13;100.00;102231.03;4897830;29;19922;-77
2023/12/15 06:49:39;;;;;;;;;;;;;;;4.18;100.00;102236.22;4900835;29;20006;-77
2023/12/15 06:52:44;;;;;;;;;;;;;;;4.16;100.00;102235.34;4893464;29;19958;-77
2023/12/15 06:55:58;;;;;;;;;;;;;;;4.26;100.00;102234.50;4882548;29;19948;-78
2023/12/15 06:59:02;;;;;;;;;;;;;;;4.29;100.00;102233.66;4882351;29;19923;-78
2023/12/15 07:02:05;;;;;;;;;;;;;;;4.32;99.71;102226.75;4882423;29;19967;-78
2023/12/15 07:05:08;;;;;;;;;;;;;;;4.37;100.00;102225.03;4882373;29;19922;-78
2023/12/15 07:08:11;;;;;;;;;;;;;;;4.34;100.00;102222.44;4882250;29;19971;-78
2023/12/15 07:11:14;;;;;;;;;;;;;;;4.34;100.00;102232.81;4882477;29;19938;-78
2023/12/15 07:14:16;;;;;;;;;;;;;;;4.23;100.00;102244.00;4882125;29;19983;-78
2023/12/15 07:17:19;;;;;;;;;;;;;;;4.28;100.00;102243.16;4882150;29;19980;-77
2023/12/15 07:20:24;;;;;;;;;;;;;;;4.36;100.00;102246.59;4880581;29;19922;-78
2023/12/15 07:23:27;;;;;;;;;;;;;;;4.31;100.00;102250.06;4879108;29;20340;-78
2023/12/15 07:26:30;;;;;;;;;;;;;;;4.35;100.00;102249.19;4878933;29;19922;-78
2023/12/15 07:29:33;;;;;;;;;;;;;;;4.39;100.00;102271.63;4880240;29;19922;-78
2023/12/15 07:32:35;;;;;;;;;;;;;;;4.38;100.00;102267.31;4880126;29;19926;-78
2023/12/15 07:35:38;;;;;;;;;;;;;;;4.41;100.00;102275.09;4880615;29;19930;-78
2023/12/15 07:38:41;;;;;;;;;;;;;;;4.43;100.00;102269.06;4880607;29;20308;-76
2023/12/15 07:41:44;;;;;;;;;;;;;;;4.48;100.00;102265.59;4880465;29;19931;-76
2023/12/15 07:44:47;;;;;;;;;;;;;;;4.52;100.00;102275.09;4880632;29;19922;-76
2023/12/15 07:47:50;;;;;;;;;;;;;;;4.53;100.00;102282.00;4880622;29;19967;-77
2023/12/15 07:50:54;;;;;;;;;;;;;;;4.57;100.00;102294.97;4880550;29;20007;-77
2023/12/15 07:53:57;;;;;;;;;;;;;;;4.53;100.00;102302.72;4880312;29;19957;-77
2023/12/15 07:57:00;;;;;;;;;;;;;;;4.51;100.00;102300.16;4880966;29;19927;-77
2023/12/15 08:00:05;;;;;;;;;;;;;;;4.56;100.00;102301.03;4879674;29;20337;-77
2023/12/15 08:03:14;;;;;;;;;;;;;;;4.53;100.00;102316.56;4880288;29;19931;-77
2023/12/15 08:06:17;;;;;;;;;;;;;;;4.41;100.00;102330.34;4880260;29;19931;-77
2023/12/15 08:09:21;;;;;;;;;;;;;;;4.49;100.00;102311.38;4880516;29;19970;-77
2023/12/15 08:12:23;;;;;;;;;;;;;;;4.56;100.00;102305.31;4880082;29;20387;-77
2023/12/15 08:15:27;;;;;;;;;;;;;;;4.61;100.00;102309.66;4880344;29;19936;-77
2023/12/15 08:18:30;;;;;;;;;;;;;;;4.68;100.00;102314.84;4880056;29;20237;-77
2023/12/15 08:21:33;;;;;;;;;;;;;;;4.74;100.00;102310.53;4876363;29;19923;-77
2023/12/15 08:24:37;;;;;;;;;;;;;;;4.73;100.00;102324.34;4878276;29;19922;-77
2023/12/15 08:27:41;;;;;;;;;;;;;;;4.71;100.00;102320.88;4878471;29;20007;-77
2023/12/15 08:30:44;;;;;;;;;;;;;;;4.79;100.00;102324.38;4879403;29;19926;-77
2023/12/15 08:33:47;;;;;;;;;;;;;;;4.79;100.00;102334.72;4879224;29;19970;-77
2023/12/15 08:36:50;;;;;;;;;;;;;;;4.79;100.00;102345.09;4879579;29;20344;-77
2023/12/15 08:39:53;;;;;;;;;;;;;;;4.61;100.00;102350.25;4879576;29;19939;-77
2023/12/15 08:42:56;;;;;;;;;;;;;;;4.63;100.00;102348.53;4879571;29;19971;-77
2023/12/15 08:45:59;;;;;;;;;;;;;;;4.80;100.00;102348.53;4879368;29;19926;-77
2023/12/15 08:49:14;;;;;;;;;;;;;;;4.94;100.00;102354.59;4880046;29;20292;-78
2023/12/15 08:53:15;;;;;;;;;;;;;;;4.96;100.00;102352.00;4873045;29;19926;-77
2023/12/15 08:56:18;;;;;;;;;;;;;;;5.07;100.00;102355.44;4879526;29;19983;-75
2023/12/15 08:59:22;;;;;;;;;;;;;;;5.05;100.00;102362.38;4879305;29;19963;-76
2023/12/15 09:02:25;;;;;;;;;;;;;;;5.11;100.00;102370.16;4879175;29;20002;-75
2023/12/15 09:05:28;;;;;;;;;;;;;;;5.09;100.00;102379.66;4879147;29;20296;-76
2023/12/15 09:08:33;;;;;;;;;;;;;;;5.19;100.00;102383.97;4879625;29;19964;-79
2023/12/15 09:11:37;;;;;;;;;;;;;;;5.23;100.00;102385.72;4879480;29;19980;-78
2023/12/15 09:14:40;;;;;;;;;;;;;;;5.28;100.00;102401.28;4879173;29;20406;-77
2023/12/15 09:17:44;;;;;;;;;;;;;;;5.34;100.00;102406.47;4879390;29;20387;-76
2023/12/15 09:20:51;;;;;;;;;;;;;;;5.31;100.00;102406.47;4879449;29;19927;-77
2023/12/15 09:23:56;;;;;;;;;;;;;;;5.35;100.00;102411.63;4879637;29;20448;-79
2023/12/15 09:27:00;;;;;;;;;;;;;;;5.27;100.00;102418.56;4877942;29;19927;-79
2023/12/15 09:30:03;;;;;;;;;;;;;;;5.40;100.00;102421.16;4878821;29;20439;-80
2023/12/15 09:33:07;;;;;;;;;;;;;;;5.47;100.00;102425.47;4878781;29;19926;-78
2023/12/15 09:36:10;;;;;;;;;;;;;;;5.48;100.00;102432.38;4878685;29;19922;-73
2023/12/15 09:39:15;;;;;;;;;;;;;;;5.54;100.00;102434.97;4878978;29;19972;-72
2023/12/15 09:42:19;;;;;;;;;;;;;;;5.59;100.00;102448.84;4878883;29;19926;-71
2023/12/15 09:45:22;;;;;;;;;;;;;;;5.63;100.00;102453.16;4878916;29;19923;-69
2023/12/15 09:48:28;;;;;;;;;;;;;;;5.69;100.00;102453.13;4878681;29;19980;-70
2023/12/15 09:51:32;;;;;;;;;;;;;;;5.59;100.00;102449.69;4877815;29;19972;-70
2023/12/15 09:54:36;;;;;;;;;;;;;;;5.69;100.00;102455.72;4878576;29;19975;-70
2023/12/15 09:57:39;;;;;;;;;;;;;;;5.71;100.00;102448.81;4878434;29;19962;-69
2023/12/15 10:00:42;;;;;;;;;;;;;;;5.77;100.00;102453.97;4878829;29;20285;-66
2023/12/15 10:03:45;;;;;;;;;;;;;;;5.84;100.00;102460.06;4866655;29;19922;-65
2023/12/15 10:06:48;;;;;;;;;;;;;;;5.95;100.00;102462.66;4878354;29;20007;-68
2023/12/15 10:09:51;;;;;;;;;;;;;;;6.00;100.00;102469.56;4878283;29;19938;-68
2023/12/15 10:12:56;;;;;;;;;;;;;;;6.00;100.00;102476.50;4878406;29;19927;-70
2023/12/15 10:15:59;;;;;;;;;;;;;;;6.02;100.00;102472.16;4878377;29;19983;-68
2023/12/15 10:19:06;;;;;;;;;;;;;;;6.09;100.00;102471.25;4877401;29;19922;-67
2023/12/15 10:22:09;;;;;;;;;;;;;;;6.14;100.00;102479.06;4877623;29;19927;-68
2023/12/15 10:25:16;;;;;;;;;;;;;;;6.19;100.00;102483.38;4881991;29;19971;-68
2023/12/15 10:28:20;;;;;;;;;;;;;;;6.21;100.00;102476.44;4882089;29;19927;-69
2023/12/15 10:31:27;;;;;;;;;;;;;;;6.22;100.00;102488.56;4881890;29;19923;-69
2023/12/15 10:34:30;;;;;;;;;;;;;;;6.32;100.00;102502.38;4886241;29;19930;-69
2023/12/15 10:37:33;;;;;;;;;;;;;;;6.35;100.00;102498.91;4893484;29;20336;-69
2023/12/15 10:40:36;;;;;;;;;;;;;;;6.41;100.00;102496.28;4889761;29;19976;-68
2023/12/15 10:43:39;;;;;;;;;;;;;;;6.43;100.00;102497.16;4885939;29;20336;-69
2023/12/15 10:46:43;;;;;;;;;;;;;;;6.45;100.00;102500.63;4894006;29;20391;-68
2023/12/15 10:49:47;;;;;;;;;;;;;;;6.48;100.00;102505.81;4894286;29;20097;-67
2023/12/15 10:52:51;;;;;;;;;;;;;;;6.50;100.00;102509.25;4886145;29;19923;-68
2023/12/15 10:55:54;;;;;;;;;;;;;;;6.52;100.00;102494.53;4888984;29;19979;-68
2023/12/15 10:58:58;;;;;;;;;;;;;;;6.46;100.00;102492.81;4897050;29;19975;-69
2023/12/15 11:02:02;;;;;;;;;;;;;;;6.48;100.00;102505.81;4889532;29;20368;-67
2023/12/15 11:05:09;;;;;;;;;;;;;;;6.49;100.00;102507.53;4881598;29;19972;-67
2023/12/15 11:08:13;;;;;;;;;;;;;;;6.47;100.00;102506.66;4886418;29;19926;-67
2023/12/15 11:11:22;;;;;;;;;;;;;;;6.33;100.00;102517.09;4882912;29;20419;-66
2023/12/15 11:14:28;;;;;;;;;;;;;;;6.39;100.00;102518.81;4886531;29;19974;-67
2023/12/15 11:17:31;;;;;;;;;;;;;;;6.37;100.00;102525.75;4896462;29;19962;-66
2023/12/15 11:20:35;;;;;;;;;;;;;;;6.53;100.00;102524.81;4890870;29;20399;-66
2023/12/15 11:24:25;;;;;;;;;;;;;;;6.59;100.00;102519.59;4886840;29;19967;-67
2023/12/15 11:27:28;;;;;;;;;;;;;;;6.70;100.00;102517.84;4885742;29;19922;-67
2023/12/15 11:30:34;;;;;;;;;;;;;;;6.85;100.00;102516.03;4899639;29;20419;-61
2023/12/15 11:33:41;;;;;;;;;;;;;;;7.25;100.00;102505.41;4894499;29;19930;-61
2023/12/15 11:36:45;;;;;;;;;;;;;;;7.28;100.00;102516.66;4889515;29;19926;-62
2023/12/15 11:39:49;;;;;;;;;;;;;;;7.30;100.00;102521.84;4881189;29;19973;-62
2023/12/15 11:42:52;;;;;;;;;;;;;;;7.35;100.00;102522.69;4886550;29;20350;-69
2023/12/15 11:45:56;;;;;;;;;;;;;;;7.16;100.00;102525.41;4896098;29;19922;-70
2023/12/15 11:49:02;;;;;;;;;;;;;;;7.26;100.00;102525.34;4892165;29;19938;-70
2023/12/15 11:52:10;;;;;;;;;;;;;;;7.20;100.00;102534.03;4892364;29;19961;-69
2023/12/15 11:55:13;;;;;;;;;;;;;;;7.20;100.00;102528.84;4891080;29;20413;-72
2023/12/15 11:58:18;;;;;;;;;;;;;;;7.25;100.00;102526.22;4883853;29;19923;-71
2023/12/15 12:01:22;;;;;;;;;;;;;;;7.37;100.00;102529.63;4888844;29;19944;-72
2023/12/15 12:04:25;;;;;;;;;;;;;;;7.42;100.00;102532.16;4899162;29;19925;-72
2023/12/15 12:07:28;;;;;;;;;;;;;;;7.41;100.00;102527.84;4891091;29;20033;-72
2023/12/15 12:10:33;;;;;;;;;;;;;;;7.35;100.00;102533.09;4890971;29;19943;-72
2023/12/15 12:13:37;;;;;;;;;;;;;;;7.14;100.00;102534.94;4890984;29;19942;-72
2023/12/15 12:16:40;;;;;;;;;;;;;;;7.15;100.00;102539.28;4888362;29;19922;-71
2023/12/15 12:19:43;;;;;;;;;;;;;;;7.09;100.00;102533.25;4880036;29;19932;-71
2023/12/15 12:22:47;;;;;;;;;;;;;;;7.11;100.00;102534.94;4879957;29;19922;-71
2023/12/15 12:25:52;;;;;;;;;;;;;;;7.08;100.00;102537.56;4879703;29;19971;-71
2023/12/15 12:28:56;;;;;;;;;;;;;;;7.16;100.00;102548.81;4879882;29;19923;-71
2023/12/15 12:31:59;;;;;;;;;;;;;;;7.16;100.00;102551.41;4879790;29;19922;-65
2023/12/15 12:35:03;;;;;;;;;;;;;;;7.16;100.00;102554.00;4879746;29;19931;-65
2023/12/15 12:38:09;;;;;;;;;;;;;;;7.15;100.00;102547.09;4879484;29;19961;-71
2023/12/15 12:41:12;;;;;;;;;;;;;;;6.98;100.00;102543.69;4879576;29;20033;-71
2023/12/15 12:44:15;;;;;;;;;;;;;;;7.01;100.00;102551.50;4879989;29;19926;-71
2023/12/15 12:47:19;;;;;;;;;;;;;;;6.91;100.00;102547.22;4885996;29;19931;-72
2023/12/15 12:50:22;;;;;;;;;;;;;;;6.97;100.00;102555.00;4883211;29;19922;-72
2023/12/15 12:53:25;;;;;;;;;;;;;;;6.92;100.00;102556.72;4888026;29;19938;-71
2023/12/15 12:56:32;;;;;;;;;;;;;;;7.16;100.00;102559.22;4894248;29;20260;-71
2023/12/15 12:59:35;;;;;;;;;;;;;;;7.18;100.00;102567.88;4879310;29;19922;-71
2023/12/15 13:02:41;;;;;;;;;;;;;;;7.25;99.46;102558.31;4879262;29;19939;-71
2023/12/15 13:05:44;;;;;;;;;;;;;;;7.25;99.55;102567.84;4896394;29;19970;-71
2023/12/15 13:08:47;;;;;;;;;;;;;;;7.38;98.22;102569.50;4895004;29;19922;-71
2023/12/15 13:11:50;;;;;;;;;;;;;;;7.39;99.05;102571.22;4889856;29;19938;-72
2023/12/15 13:14:54;;;;;;;;;;;;;;;7.21;98.42;102575.69;4885699;29;19935;-72
2023/12/15 13:17:59;;;;;;;;;;;;;;;7.12;99.31;102578.31;4886111;29;19966;-71
2023/12/15 13:21:05;;;;;;;;;;;;;;;7.34;100.00;102572.97;4897529;29;20300;-72
2023/12/15 13:24:08;;;;;;;;;;;;;;;7.38;98.04;102569.50;4884219;29;19927;-71
2023/12/15 13:27:11;;;;;;;;;;;;;;;7.33;98.20;102577.31;4888827;29;19934;-71
2023/12/15 13:30:15;;;;;;;;;;;;;;;7.35;99.34;102573.00;4887418;29;19926;-71
2023/12/15 13:33:18;;;;;;;;;;;;;;;7.34;98.92;102572.97;4884594;29;19962;-71
2023/12/15 13:36:21;;;;;;;;;;;;;;;7.33;98.93;102566.06;4889093;29;19988;-71
2023/12/15 13:39:24;;;;;;;;;;;;;;;7.36;98.98;102559.09;4891358;29;20300;-75
2023/12/15 13:42:28;;;;;;;;;;;;;;;7.41;98.87;102566.88;4885987;29;19963;-73
2023/12/15 13:45:31;;;;;;;;;;;;;;;7.39;99.03;102560.81;4888301;29;19963;-68
2023/12/15 13:48:35;;;;;;;;;;;;;;;7.43;99.66;102558.19;4888949;29;19975;-69
2023/12/15 13:51:39;;;;;;;;;;;;;;;7.57;98.56;102565.91;4882904;29;19981;-70
2023/12/15 13:54:42;;;;;;;;;;;;;;;7.50;99.45;102578.94;4894234;29;20344;-72
2023/12/15 13:57:45;;;;;;;;;;;;;;;7.53;100.00;102584.13;4883205;29;20087;-70
2023/12/15 14:00:48;;;;;;;;;;;;;;;7.57;100.00;102565.91;4884292;29;20011;-74
2023/12/15 14:03:51;;;;;;;;;;;;;;;7.49;100.00;102580.69;4883448;29;19922;-73
2023/12/15 14:06:58;;;;;;;;;;;;;;;7.52;100.00;102579.81;4885624;29;19965;-73
2023/12/15 14:10:05;;;;;;;;;;;;;;;7.66;100.00;102571.06;4891372;29;19971;-72
2023/12/15 14:13:08;;;;;;;;;;;;;;;7.69;100.00;102560.63;4897200;29;20371;-71
2023/12/15 14:16:12;;;;;;;;;;;;;;;7.74;100.00;102541.47;4897068;29;20013;-72
2023/12/15 14:19:15;;;;;;;;;;;;;;;7.83;100.00;102542.25;4891928;29;19983;-72
2023/12/15 14:22:18;;;;;;;;;;;;;;;7.75;100.00;102532.78;4883085;29;19934;-71
2023/12/15 14:25:24;;;;;;;;;;;;;;;7.57;100.00;102555.50;4888595;29;19963;-71
2023/12/15 14:28:27;;;;;;;;;;;;;;;7.54;100.00;102567.66;4888462;29;19921;-71
2023/12/15 14:31:31;;;;;;;;;;;;;;;7.53;100.00;102579.81;4888569;29;20336;-71
2023/12/15 14:34:36;;;;;;;;;;;;;;;7.55;100.00;102572.00;4880259;29;19989;-71
2023/12/15 14:37:39;;;;;;;;;;;;;;;7.55;100.00;102574.59;4894885;29;20292;-71
2023/12/15 14:40:42;;;;;;;;;;;;;;;7.52;100.00;102580.69;4896418;29;19948;-71
2023/12/15 14:43:46;;;;;;;;;;;;;;;7.48;100.00;102594.59;4892912;29;19922;-71
2023/12/15 14:46:49;;;;;;;;;;;;;;;7.44;100.00;102616.31;4883259;29;19934;-71
2023/12/15 14:49:53;;;;;;;;;;;;;;;7.50;100.00;102613.69;4880758;29;20032;-71
2023/12/15 14:52:57;;;;;;;;;;;;;;;7.60;100.00;102617.09;4885006;29;20022;-71
2023/12/15 14:56:03;;;;;;;;;;;;;;;7.75;100.00;102624.78;4886582;29;20109;-71
2023/12/15 14:59:32;;;;;;;;;;;;;;;7.74;100.00;102636.06;4882468;29;19972;-70
2023/12/15 15:02:35;;;;;;;;;;;;;;;7.73;100.00;102631.75;4887310;29;20329;-71
2023/12/15 15:05:39;;;;;;;;;;;;;;;7.72;100.00;102626.53;4887366;29;20427;-71
2023/12/15 15:08:45;;;;;;;;;;;;;;;7.60;100.00;102622.31;4884620;29;20347;-71
2023/12/15 15:11:49;;;;;;;;;;;;;;;7.58;100.00;102624.91;4886906;29;19983;-71
2023/12/15 15:14:52;;;;;;;;;;;;;;;7.67;100.00;102614.44;4894514;29;20010;-71
2023/12/15 15:17:55;;;;;;;;;;;;;;;7.66;100.00;102617.91;4890621;29;20056;-71
2023/12/15 15:21:03;;;;;;;;;;;;;;;7.49;100.00;102621.50;4888796;29;20316;-71
2023/12/15 15:24:08;;;;;;;;;;;;;;;7.54;100.00;102633.63;4888133;29;19931;-71
2023/12/15 15:27:12;;;;;;;;;;;;;;;7.55;100.00;102640.53;4889945;29;19922;-71
2023/12/15 15:30:15;;;;;;;;;;;;;;;7.37;100.00;102646.72;4891315;29;20382;-71
2023/12/15 15:33:19;;;;;;;;;;;;;;;7.39;100.00;102654.50;4887800;29;19922;-72
2023/12/15 15:36:23;;;;;;;;;;;;;;;7.39;100.00;102660.56;4886434;29;19962;-72
2023/12/15 15:39:27;;;;;;;;;;;;;;;7.31;100.00;102671.91;4893699;29;20346;-74
2023/12/15 15:42:30;;;;;;;;;;;;;;;7.23;100.00;102685.81;4898303;29;19926;-74
2023/12/15 15:45:33;;;;;;;;;;;;;;;7.08;100.00;102693.66;4898519;29;20291;-74
2023/12/15 15:48:37;;;;;;;;;;;;;;;6.98;100.00;102685.00;4895851;29;19935;-75
2023/12/15 15:51:40;;;;;;;;;;;;;;;6.98;100.00;102686.75;4884302;29;20051;-75
2023/12/15 15:54:45;;;;;;;;;;;;;;;7.14;100.00;102687.56;4889345;29;20023;-76